sensor_id;sensor_type;location;lat;lon;timestamp;P1;durP1;ratioP1;P2;durP2;ratioP2
8476;SDS011;4275;42.854;23.222;2023-11-19T00:01:14;14.23;;;13.73;;
8476;SDS011;4275;42.854;23.222;2023-11-19T00:03:41;14.17;;;13.67;;
8476;SDS011;4275;42.854;23.222;2023-11-19T00:06:10;15.13;;;14.60;;
8476;SDS011;4275;42.854;23.222;2023-11-19T00:08:43;14.20;;;13.70;;
8476;SDS011;4275;42.854;23.222;2023-11-19T00:11:11;14.00;;;13.50;;
8476;SDS011;4275;42.854;23.222;2023-11-19T00:13:44;16.73;;;16.13;;
8476;SDS011;4275;42.854;23.222;2023-11-19T00:16:49;16.00;;;15.40;;
8476;SDS011;4275;42.854;23.222;2023-11-19T00:19:16;15.70;;;15.10;;
8476;SDS011;4275;42.854;23.222;2023-11-19T00:21:44;15.90;;;15.30;;
8476;SDS011;4275;42.854;23.222;2023-11-19T00:27:47;15.90;;;15.30;;
8476;SDS011;4275;42.854;23.222;2023-11-19T00:33:20;15.70;;;15.10;;
8476;SDS011;4275;42.854;23.222;2023-11-19T00:35:49;17.10;;;16.40;;
8476;SDS011;4275;42.854;23.222;2023-11-19T00:38:25;16.30;;;15.70;;
8476;SDS011;4275;42.854;23.222;2023-11-19T00:40:52;15.83;;;15.23;;
8476;SDS011;4275;42.854;23.222;2023-11-19T00:43:19;15.90;;;15.30;;
8476;SDS011;4275;42.854;23.222;2023-11-19T00:45:47;16.23;;;15.63;;
8476;SDS011;4275;42.854;23.222;2023-11-19T00:48:17;16.23;;;15.63;;
8476;SDS011;4275;42.854;23.222;2023-11-19T00:50:44;15.80;;;15.20;;
8476;SDS011;4275;42.854;23.222;2023-11-19T00:53:17;15.70;;;15.10;;
8476;SDS011;4275;42.854;23.222;2023-11-19T00:55:45;16.03;;;15.43;;
8476;SDS011;4275;42.854;23.222;2023-11-19T00:58:18;15.00;;;14.43;;
8476;SDS011;4275;42.854;23.222;2023-11-19T01:00:45;13.53;;;13.07;;
8476;SDS011;4275;42.854;23.222;2023-11-19T01:03:17;14.00;;;13.50;;
8476;SDS011;4275;42.854;23.222;2023-11-19T01:05:44;14.13;;;13.63;;
8476;SDS011;4275;42.854;23.222;2023-11-19T01:08:15;16.27;;;15.67;;
8476;SDS011;4275;42.854;23.222;2023-11-19T01:10:44;16.47;;;15.87;;
8476;SDS011;4275;42.854;23.222;2023-11-19T01:13:17;14.00;;;13.50;;
8476;SDS011;4275;42.854;23.222;2023-11-19T01:15:45;13.90;;;13.40;;
8476;SDS011;4275;42.854;23.222;2023-11-19T01:18:17;13.87;;;13.37;;
8476;SDS011;4275;42.854;23.222;2023-11-19T01:20:44;13.50;;;13.10;;
8476;SDS011;4275;42.854;23.222;2023-11-19T01:26:40;15.20;;;14.70;;
8476;SDS011;4275;42.854;23.222;2023-11-19T01:29:10;14.90;;;14.40;;
8476;SDS011;4275;42.854;23.222;2023-11-19T01:31:38;15.20;;;14.70;;
8476;SDS011;4275;42.854;23.222;2023-11-19T01:34:07;16.17;;;15.57;;
8476;SDS011;4275;42.854;23.222;2023-11-19T01:36:35;16.70;;;16.10;;
8476;SDS011;4275;42.854;23.222;2023-11-19T01:39:02;16.13;;;15.53;;
8476;SDS011;4275;42.854;23.222;2023-11-19T01:41:30;15.50;;;14.90;;
8476;SDS011;4275;42.854;23.222;2023-11-19T01:44:07;15.53;;;14.97;;
8476;SDS011;4275;42.854;23.222;2023-11-19T01:46:34;16.00;;;15.40;;
8476;SDS011;4275;42.854;23.222;2023-11-19T01:49:02;16.57;;;15.97;;
8476;SDS011;4275;42.854;23.222;2023-11-19T01:51:33;16.70;;;16.10;;
8476;SDS011;4275;42.854;23.222;2023-11-19T01:54:00;17.10;;;16.40;;
8476;SDS011;4275;42.854;23.222;2023-11-19T01:56:28;16.90;;;16.20;;
8476;SDS011;4275;42.854;23.222;2023-11-19T01:58:56;17.47;;;16.77;;
8476;SDS011;4275;42.854;23.222;2023-11-19T02:01:36;17.17;;;16.53;;
8476;SDS011;4275;42.854;23.222;2023-11-19T02:04:14;16.53;;;15.93;;
8476;SDS011;4275;42.854;23.222;2023-11-19T02:09:52;16.57;;;15.97;;
8476;SDS011;4275;42.854;23.222;2023-11-19T02:12:19;16.87;;;16.27;;
8476;SDS011;4275;42.854;23.222;2023-11-19T02:14:52;16.80;;;16.20;;
8476;SDS011;4275;42.854;23.222;2023-11-19T02:17:26;16.60;;;16.00;;
8476;SDS011;4275;42.854;23.222;2023-11-19T02:19:53;14.97;;;14.43;;
8476;SDS011;4275;42.854;23.222;2023-11-19T02:22:23;16.73;;;16.13;;
8476;SDS011;4275;42.854;23.222;2023-11-19T02:24:58;17.47;;;16.57;;
8476;SDS011;4275;42.854;23.222;2023-11-19T02:27:43;16.67;;;16.07;;
8476;SDS011;4275;42.854;23.222;2023-11-19T02:30:21;16.87;;;16.17;;
8476;SDS011;4275;42.854;23.222;2023-11-19T02:32:55;16.40;;;15.80;;
8476;SDS011;4275;42.854;23.222;2023-11-19T02:45:17;16.27;;;15.67;;
8476;SDS011;4275;42.854;23.222;2023-11-19T02:47:44;16.53;;;15.93;;
8476;SDS011;4275;42.854;23.222;2023-11-19T02:50:11;16.50;;;15.90;;
8476;SDS011;4275;42.854;23.222;2023-11-19T02:52:40;16.13;;;15.53;;
8476;SDS011;4275;42.854;23.222;2023-11-19T02:55:07;15.40;;;14.90;;
8476;SDS011;4275;42.854;23.222;2023-11-19T02:57:37;16.30;;;15.70;;
8476;SDS011;4275;42.854;23.222;2023-11-19T03:00:06;15.70;;;15.10;;
8476;SDS011;4275;42.854;23.222;2023-11-19T03:02:40;15.20;;;14.70;;
8476;SDS011;4275;42.854;23.222;2023-11-19T03:05:12;13.13;;;12.73;;
8476;SDS011;4275;42.854;23.222;2023-11-19T03:07:40;13.70;;;13.30;;
8476;SDS011;4275;42.854;23.222;2023-11-19T03:10:09;13.90;;;13.40;;
8476;SDS011;4275;42.854;23.222;2023-11-19T03:12:38;13.83;;;13.33;;
8476;SDS011;4275;42.854;23.222;2023-11-19T03:15:06;16.10;;;15.50;;
8476;SDS011;4275;42.854;23.222;2023-11-19T03:17:35;15.43;;;14.90;;
8476;SDS011;4275;42.854;23.222;2023-11-19T03:20:06;15.40;;;14.90;;
8476;SDS011;4275;42.854;23.222;2023-11-19T03:22:35;15.23;;;14.73;;
8476;SDS011;4275;42.854;23.222;2023-11-19T03:25:04;15.33;;;14.83;;
8476;SDS011;4275;42.854;23.222;2023-11-19T03:27:33;14.53;;;14.03;;
8476;SDS011;4275;42.854;23.222;2023-11-19T03:30:03;14.30;;;13.80;;
8476;SDS011;4275;42.854;23.222;2023-11-19T03:32:33;14.70;;;14.20;;
8476;SDS011;4275;42.854;23.222;2023-11-19T03:35:05;14.60;;;14.10;;
8476;SDS011;4275;42.854;23.222;2023-11-19T03:37:34;14.73;;;14.23;;
8476;SDS011;4275;42.854;23.222;2023-11-19T03:40:03;15.00;;;14.50;;
8476;SDS011;4275;42.854;23.222;2023-11-19T03:42:33;14.93;;;14.43;;
8476;SDS011;4275;42.854;23.222;2023-11-19T03:45:02;15.17;;;14.67;;
8476;SDS011;4275;42.854;23.222;2023-11-19T03:47:33;15.50;;;14.93;;
8476;SDS011;4275;42.854;23.222;2023-11-19T03:50:07;15.30;;;14.80;;
8476;SDS011;4275;42.854;23.222;2023-11-19T03:52:34;15.97;;;15.37;;
8476;SDS011;4275;42.854;23.222;2023-11-19T03:55:04;15.63;;;15.03;;
8476;SDS011;4275;42.854;23.222;2023-11-19T03:57:33;15.73;;;15.13;;
8476;SDS011;4275;42.854;23.222;2023-11-19T04:00:07;15.90;;;15.30;;
8476;SDS011;4275;42.854;23.222;2023-11-19T04:02:35;15.77;;;15.17;;
8476;SDS011;4275;42.854;23.222;2023-11-19T04:05:04;15.37;;;14.87;;
8476;SDS011;4275;42.854;23.222;2023-11-19T04:07:34;15.03;;;14.53;;
8476;SDS011;4275;42.854;23.222;2023-11-19T04:10:05;14.30;;;13.80;;
8476;SDS011;4275;42.854;23.222;2023-11-19T04:12:35;14.97;;;14.47;;
8476;SDS011;4275;42.854;23.222;2023-11-19T04:15:05;14.23;;;13.73;;
8476;SDS011;4275;42.854;23.222;2023-11-19T04:17:35;14.37;;;13.87;;
8476;SDS011;4275;42.854;23.222;2023-11-19T04:20:06;14.80;;;14.30;;
8476;SDS011;4275;42.854;23.222;2023-11-19T04:22:36;14.80;;;14.30;;
8476;SDS011;4275;42.854;23.222;2023-11-19T04:25:09;14.70;;;14.20;;
8476;SDS011;4275;42.854;23.222;2023-11-19T04:30:57;14.13;;;13.63;;
8476;SDS011;4275;42.854;23.222;2023-11-19T04:33:24;15.40;;;14.80;;
8476;SDS011;4275;42.854;23.222;2023-11-19T04:35:52;15.40;;;14.90;;
8476;SDS011;4275;42.854;23.222;2023-11-19T04:38:19;15.10;;;14.60;;
8476;SDS011;4275;42.854;23.222;2023-11-19T04:40:49;14.10;;;13.60;;
8476;SDS011;4275;42.854;23.222;2023-11-19T04:43:19;14.40;;;13.90;;
8476;SDS011;4275;42.854;23.222;2023-11-19T04:45:49;14.80;;;14.30;;
8476;SDS011;4275;42.854;23.222;2023-11-19T04:48:22;13.70;;;13.27;;
8476;SDS011;4275;42.854;23.222;2023-11-19T04:50:49;14.20;;;13.70;;
8476;SDS011;4275;42.854;23.222;2023-11-19T04:53:21;14.37;;;13.87;;
8476;SDS011;4275;42.854;23.222;2023-11-19T04:55:49;14.00;;;13.50;;
8476;SDS011;4275;42.854;23.222;2023-11-19T04:58:18;14.40;;;13.90;;
8476;SDS011;4275;42.854;23.222;2023-11-19T05:00:51;13.50;;;13.10;;
8476;SDS011;4275;42.854;23.222;2023-11-19T05:03:19;13.87;;;13.47;;
8476;SDS011;4275;42.854;23.222;2023-11-19T05:05:50;13.30;;;12.90;;
8476;SDS011;4275;42.854;23.222;2023-11-19T05:08:20;13.13;;;12.73;;
8476;SDS011;4275;42.854;23.222;2023-11-19T05:10:49;13.10;;;12.70;;
8476;SDS011;4275;42.854;23.222;2023-11-19T05:13:20;13.43;;;13.03;;
8476;SDS011;4275;42.854;23.222;2023-11-19T05:15:49;13.10;;;12.70;;
8476;SDS011;4275;42.854;23.222;2023-11-19T05:18:20;13.10;;;12.70;;
8476;SDS011;4275;42.854;23.222;2023-11-19T05:20:49;12.90;;;12.50;;
8476;SDS011;4275;42.854;23.222;2023-11-19T05:26:07;12.83;;;12.43;;
8476;SDS011;4275;42.854;23.222;2023-11-19T05:28:37;12.87;;;12.47;;
8476;SDS011;4275;42.854;23.222;2023-11-19T05:31:05;16.13;;;15.53;;
8476;SDS011;4275;42.854;23.222;2023-11-19T05:33:32;13.67;;;13.20;;
8476;SDS011;4275;42.854;23.222;2023-11-19T05:39:22;12.97;;;12.57;;
8476;SDS011;4275;42.854;23.222;2023-11-19T05:41:49;13.50;;;13.10;;
8476;SDS011;4275;42.854;23.222;2023-11-19T05:44:16;12.93;;;12.53;;
8476;SDS011;4275;42.854;23.222;2023-11-19T05:46:44;12.10;;;11.70;;
8476;SDS011;4275;42.854;23.222;2023-11-19T05:49:11;11.70;;;11.40;;
8476;SDS011;4275;42.854;23.222;2023-11-19T05:51:39;12.27;;;11.87;;
8476;SDS011;4275;42.854;23.222;2023-11-19T05:54:07;12.80;;;12.40;;
8476;SDS011;4275;42.854;23.222;2023-11-19T05:56:36;10.80;;;10.50;;
8476;SDS011;4275;42.854;23.222;2023-11-19T05:59:03;11.30;;;11.00;;
8476;SDS011;4275;42.854;23.222;2023-11-19T06:01:32;11.50;;;11.20;;
8476;SDS011;4275;42.854;23.222;2023-11-19T06:04:00;10.97;;;10.67;;
8476;SDS011;4275;42.854;23.222;2023-11-19T06:06:28;10.90;;;10.60;;
8476;SDS011;4275;42.854;23.222;2023-11-19T06:09:00;15.83;;;15.23;;
8476;SDS011;4275;42.854;23.222;2023-11-19T06:11:33;12.63;;;12.23;;
8476;SDS011;4275;42.854;23.222;2023-11-19T06:14:14;10.90;;;10.60;;
8476;SDS011;4275;42.854;23.222;2023-11-19T06:16:41;11.20;;;10.90;;
8476;SDS011;4275;42.854;23.222;2023-11-19T06:22:07;11.70;;;11.30;;
8476;SDS011;4275;42.854;23.222;2023-11-19T06:24:37;12.13;;;11.73;;
8476;SDS011;4275;42.854;23.222;2023-11-19T06:27:05;11.47;;;11.17;;
8476;SDS011;4275;42.854;23.222;2023-11-19T06:29:34;14.10;;;13.60;;
8476;SDS011;4275;42.854;23.222;2023-11-19T06:35:34;12.50;;;12.10;;
8476;SDS011;4275;42.854;23.222;2023-11-19T06:38:06;12.37;;;11.97;;
8476;SDS011;4275;42.854;23.222;2023-11-19T06:40:39;12.27;;;11.87;;
8476;SDS011;4275;42.854;23.222;2023-11-19T06:46:00;12.27;;;11.87;;
8476;SDS011;4275;42.854;23.222;2023-11-19T06:48:27;13.80;;;13.30;;
8476;SDS011;4275;42.854;23.222;2023-11-19T06:50:54;14.00;;;13.50;;
8476;SDS011;4275;42.854;23.222;2023-11-19T06:53:20;14.20;;;13.77;;
8476;SDS011;4275;42.854;23.222;2023-11-19T06:59:13;12.50;;;12.10;;
8476;SDS011;4275;42.854;23.222;2023-11-19T07:01:40;12.37;;;11.97;;
8476;SDS011;4275;42.854;23.222;2023-11-19T07:04:10;12.70;;;12.30;;
8476;SDS011;4275;42.854;23.222;2023-11-19T07:06:37;12.53;;;12.13;;
8476;SDS011;4275;42.854;23.222;2023-11-19T07:09:06;12.30;;;11.90;;
8476;SDS011;4275;42.854;23.222;2023-11-19T07:11:35;11.83;;;11.43;;
8476;SDS011;4275;42.854;23.222;2023-11-19T07:14:05;12.60;;;12.20;;
8476;SDS011;4275;42.854;23.222;2023-11-19T07:16:34;12.17;;;11.77;;
8476;SDS011;4275;42.854;23.222;2023-11-19T07:19:02;11.80;;;11.40;;
8476;SDS011;4275;42.854;23.222;2023-11-19T07:21:30;11.90;;;11.50;;
8476;SDS011;4275;42.854;23.222;2023-11-19T07:27:19;12.20;;;11.80;;
8476;SDS011;4275;42.854;23.222;2023-11-19T07:29:59;12.50;;;12.10;;
8476;SDS011;4275;42.854;23.222;2023-11-19T07:32:45;12.30;;;11.90;;
8476;SDS011;4275;42.854;23.222;2023-11-19T07:35:21;12.57;;;12.17;;
8476;SDS011;4275;42.854;23.222;2023-11-19T07:37:57;12.30;;;11.90;;
8476;SDS011;4275;42.854;23.222;2023-11-19T07:40:41;11.70;;;11.30;;
8476;SDS011;4275;42.854;23.222;2023-11-19T07:43:14;11.97;;;11.57;;
8476;SDS011;4275;42.854;23.222;2023-11-19T07:45:46;12.53;;;12.13;;
8476;SDS011;4275;42.854;23.222;2023-11-19T07:48:24;12.97;;;12.57;;
8476;SDS011;4275;42.854;23.222;2023-11-19T07:50:55;12.00;;;11.60;;
8476;SDS011;4275;42.854;23.222;2023-11-19T07:53:26;12.20;;;11.80;;
8476;SDS011;4275;42.854;23.222;2023-11-19T07:55:59;12.80;;;12.40;;
8476;SDS011;4275;42.854;23.222;2023-11-19T07:58:31;12.67;;;12.27;;
8476;SDS011;4275;42.854;23.222;2023-11-19T08:01:09;13.17;;;12.70;;
8476;SDS011;4275;42.854;23.222;2023-11-19T08:03:48;12.63;;;12.23;;
8476;SDS011;4275;42.854;23.222;2023-11-19T08:06:22;12.70;;;12.30;;
8476;SDS011;4275;42.854;23.222;2023-11-19T08:08:49;13.70;;;13.20;;
8476;SDS011;4275;42.854;23.222;2023-11-19T08:11:17;13.20;;;12.80;;
8476;SDS011;4275;42.854;23.222;2023-11-19T08:13:49;13.70;;;13.20;;
8476;SDS011;4275;42.854;23.222;2023-11-19T08:16:31;13.53;;;13.03;;
8476;SDS011;4275;42.854;23.222;2023-11-19T08:18:59;13.30;;;12.80;;
8476;SDS011;4275;42.854;23.222;2023-11-19T08:21:26;13.70;;;13.20;;
8476;SDS011;4275;42.854;23.222;2023-11-19T08:23:53;13.30;;;12.80;;
8476;SDS011;4275;42.854;23.222;2023-11-19T08:29:39;13.30;;;12.80;;
8476;SDS011;4275;42.854;23.222;2023-11-19T08:32:11;13.70;;;13.20;;
8476;SDS011;4275;42.854;23.222;2023-11-19T08:34:43;14.77;;;14.17;;
8476;SDS011;4275;42.854;23.222;2023-11-19T08:37:09;13.80;;;13.30;;
8476;SDS011;4275;42.854;23.222;2023-11-19T08:39:37;13.40;;;12.90;;
8476;SDS011;4275;42.854;23.222;2023-11-19T08:42:04;13.50;;;13.00;;
8476;SDS011;4275;42.854;23.222;2023-11-19T08:47:54;13.30;;;12.80;;
8476;SDS011;4275;42.854;23.222;2023-11-19T08:50:27;13.47;;;12.97;;
8476;SDS011;4275;42.854;23.222;2023-11-19T08:59:42;13.90;;;13.40;;
8476;SDS011;4275;42.854;23.222;2023-11-19T09:02:16;13.83;;;13.33;;
8476;SDS011;4275;42.854;23.222;2023-11-19T09:04:55;13.70;;;13.20;;
8476;SDS011;4275;42.854;23.222;2023-11-19T09:07:33;13.90;;;13.30;;
8476;SDS011;4275;42.854;23.222;2023-11-19T09:10:07;13.70;;;13.10;;
8476;SDS011;4275;42.854;23.222;2023-11-19T09:12:41;14.33;;;13.73;;
8476;SDS011;4275;42.854;23.222;2023-11-19T09:15:13;14.03;;;13.43;;
8476;SDS011;4275;42.854;23.222;2023-11-19T09:17:46;13.80;;;13.20;;
8476;SDS011;4275;42.854;23.222;2023-11-19T09:20:17;13.90;;;13.30;;
8476;SDS011;4275;42.854;23.222;2023-11-19T09:22:46;14.23;;;13.63;;
8476;SDS011;4275;42.854;23.222;2023-11-19T09:25:13;14.30;;;13.70;;
8476;SDS011;4275;42.854;23.222;2023-11-19T09:27:43;13.87;;;13.27;;
8476;SDS011;4275;42.854;23.222;2023-11-19T09:30:16;13.53;;;13.03;;
8476;SDS011;4275;42.854;23.222;2023-11-19T09:32:49;14.03;;;13.43;;
8476;SDS011;4275;42.854;23.222;2023-11-19T09:35:27;13.87;;;13.27;;
8476;SDS011;4275;42.854;23.222;2023-11-19T09:37:56;14.73;;;14.07;;
8476;SDS011;4275;42.854;23.222;2023-11-19T09:40:24;14.90;;;14.30;;
8476;SDS011;4275;42.854;23.222;2023-11-19T09:42:51;14.70;;;14.00;;
8476;SDS011;4275;42.854;23.222;2023-11-19T09:45:19;14.70;;;14.00;;
8476;SDS011;4275;42.854;23.222;2023-11-19T09:47:47;14.80;;;14.10;;
8476;SDS011;4275;42.854;23.222;2023-11-19T09:50:18;15.10;;;14.30;;
8476;SDS011;4275;42.854;23.222;2023-11-19T09:59:15;15.30;;;14.50;;
8476;SDS011;4275;42.854;23.222;2023-11-19T10:01:48;15.40;;;14.60;;
8476;SDS011;4275;42.854;23.222;2023-11-19T10:04:20;15.23;;;14.43;;
8476;SDS011;4275;42.854;23.222;2023-11-19T10:06:54;14.90;;;14.20;;
8476;SDS011;4275;42.854;23.222;2023-11-19T10:09:27;16.17;;;15.27;;
8476;SDS011;4275;42.854;23.222;2023-11-19T10:12:00;15.20;;;14.40;;
8476;SDS011;4275;42.854;23.222;2023-11-19T10:14:27;16.67;;;15.67;;
8476;SDS011;4275;42.854;23.222;2023-11-19T10:20:20;15.63;;;14.80;;
8476;SDS011;4275;42.854;23.222;2023-11-19T10:22:47;16.00;;;15.10;;
8476;SDS011;4275;42.854;23.222;2023-11-19T10:25:23;16.00;;;15.10;;
8476;SDS011;4275;42.854;23.222;2023-11-19T10:27:52;16.10;;;15.20;;
8476;SDS011;4275;42.854;23.222;2023-11-19T10:30:20;16.30;;;15.40;;
8476;SDS011;4275;42.854;23.222;2023-11-19T10:33:02;16.70;;;15.70;;
8476;SDS011;4275;42.854;23.222;2023-11-19T10:35:32;16.47;;;15.47;;
8476;SDS011;4275;42.854;23.222;2023-11-19T10:38:00;16.77;;;15.87;;
8476;SDS011;4275;42.854;23.222;2023-11-19T10:40:38;16.93;;;15.93;;
8476;SDS011;4275;42.854;23.222;2023-11-19T10:43:08;16.30;;;15.40;;
8476;SDS011;4275;42.854;23.222;2023-11-19T10:45:35;16.40;;;15.40;;
8476;SDS011;4275;42.854;23.222;2023-11-19T10:48:03;16.27;;;15.37;;
8476;SDS011;4275;42.854;23.222;2023-11-19T10:50:34;16.00;;;15.10;;
8476;SDS011;4275;42.854;23.222;2023-11-19T10:53:07;16.93;;;15.93;;
8476;SDS011;4275;42.854;23.222;2023-11-19T10:55:40;16.57;;;15.67;;
8476;SDS011;4275;42.854;23.222;2023-11-19T10:58:22;16.70;;;15.70;;
8476;SDS011;4275;42.854;23.222;2023-11-19T11:01:16;16.60;;;15.70;;
8476;SDS011;4275;42.854;23.222;2023-11-19T11:03:46;17.33;;;16.33;;
8476;SDS011;4275;42.854;23.222;2023-11-19T11:13:01;16.33;;;15.43;;
8476;SDS011;4275;42.854;23.222;2023-11-19T11:29:40;17.20;;;16.10;;
8476;SDS011;4275;42.854;23.222;2023-11-19T11:32:33;16.80;;;15.80;;
8476;SDS011;4275;42.854;23.222;2023-11-19T11:35:27;17.17;;;16.07;;
8476;SDS011;4275;42.854;23.222;2023-11-19T11:38:00;16.50;;;15.50;;
8476;SDS011;4275;42.854;23.222;2023-11-19T11:40:30;17.47;;;16.27;;
8476;SDS011;4275;42.854;23.222;2023-11-19T11:43:00;17.73;;;16.53;;
8476;SDS011;4275;42.854;23.222;2023-11-19T11:52:04;17.60;;;16.40;;
8476;SDS011;4275;42.854;23.222;2023-11-19T11:54:44;18.47;;;17.17;;
8476;SDS011;4275;42.854;23.222;2023-11-19T11:57:17;17.40;;;16.30;;
8476;SDS011;4275;42.854;23.222;2023-11-19T11:59:50;18.43;;;17.13;;
8476;SDS011;4275;42.854;23.222;2023-11-19T12:02:22;18.33;;;17.03;;
8476;SDS011;4275;42.854;23.222;2023-11-19T12:04:55;19.30;;;17.80;;
8476;SDS011;4275;42.854;23.222;2023-11-19T12:07:33;19.20;;;17.70;;
8476;SDS011;4275;42.854;23.222;2023-11-19T12:10:07;19.60;;;18.10;;
8476;SDS011;4275;42.854;23.222;2023-11-19T12:12:43;21.70;;;20.20;;
8476;SDS011;4275;42.854;23.222;2023-11-19T12:15:15;24.80;;;23.03;;
8476;SDS011;4275;42.854;23.222;2023-11-19T12:17:57;19.30;;;17.90;;
8476;SDS011;4275;42.854;23.222;2023-11-19T12:20:25;20.20;;;18.60;;
8476;SDS011;4275;42.854;23.222;2023-11-19T12:22:58;19.70;;;18.20;;
8476;SDS011;4275;42.854;23.222;2023-11-19T12:25:34;19.80;;;18.30;;
8476;SDS011;4275;42.854;23.222;2023-11-19T12:28:01;19.00;;;17.60;;
8476;SDS011;4275;42.854;23.222;2023-11-19T12:30:30;20.70;;;19.10;;
8476;SDS011;4275;42.854;23.222;2023-11-19T12:36:23;19.90;;;18.30;;
8476;SDS011;4275;42.854;23.222;2023-11-19T12:39:02;19.97;;;18.37;;
8476;SDS011;4275;42.854;23.222;2023-11-19T12:41:29;20.77;;;19.07;;
8476;SDS011;4275;42.854;23.222;2023-11-19T12:44:08;19.87;;;18.37;;
8476;SDS011;4275;42.854;23.222;2023-11-19T12:46:37;20.60;;;19.00;;
8476;SDS011;4275;42.854;23.222;2023-11-19T12:49:04;20.30;;;18.70;;
8476;SDS011;4275;42.854;23.222;2023-11-19T12:51:31;21.40;;;19.70;;
8476;SDS011;4275;42.854;23.222;2023-11-19T12:53:58;20.37;;;18.77;;
8476;SDS011;4275;42.854;23.222;2023-11-19T12:56:26;23.17;;;21.47;;
8476;SDS011;4275;42.854;23.222;2023-11-19T12:58:54;24.87;;;23.03;;
8476;SDS011;4275;42.854;23.222;2023-11-19T13:01:21;21.90;;;20.20;;
8476;SDS011;4275;42.854;23.222;2023-11-19T13:03:48;21.70;;;20.00;;
8476;SDS011;4275;42.854;23.222;2023-11-19T13:06:17;22.47;;;20.67;;
8476;SDS011;4275;42.854;23.222;2023-11-19T13:11:59;21.90;;;20.20;;
8476;SDS011;4275;42.854;23.222;2023-11-19T13:14:45;21.40;;;19.70;;
8476;SDS011;4275;42.854;23.222;2023-11-19T13:17:31;21.47;;;19.77;;
8476;SDS011;4275;42.854;23.222;2023-11-19T13:20:09;21.40;;;19.70;;
8476;SDS011;4275;42.854;23.222;2023-11-19T13:22:58;21.60;;;19.90;;
8476;SDS011;4275;42.854;23.222;2023-11-19T13:28:57;21.97;;;20.17;;
8476;SDS011;4275;42.854;23.222;2023-11-19T13:31:36;21.50;;;19.80;;
8476;SDS011;4275;42.854;23.222;2023-11-19T13:34:08;21.13;;;19.43;;
8476;SDS011;4275;42.854;23.222;2023-11-19T13:36:40;21.90;;;20.20;;
8476;SDS011;4275;42.854;23.222;2023-11-19T13:39:15;21.40;;;19.70;;
8476;SDS011;4275;42.854;23.222;2023-11-19T13:42:23;21.53;;;19.83;;
8476;SDS011;4275;42.854;23.222;2023-11-19T13:44:59;21.63;;;19.93;;
8476;SDS011;4275;42.854;23.222;2023-11-19T13:47:30;21.60;;;19.90;;
8476;SDS011;4275;42.854;23.222;2023-11-19T13:49:57;21.43;;;19.73;;
8476;SDS011;4275;42.854;23.222;2023-11-19T13:52:24;20.97;;;19.37;;
8476;SDS011;4275;42.854;23.222;2023-11-19T13:55:09;21.13;;;19.43;;
8476;SDS011;4275;42.854;23.222;2023-11-19T13:57:43;20.90;;;19.20;;
8476;SDS011;4275;42.854;23.222;2023-11-19T14:00:13;20.77;;;19.07;;
8476;SDS011;4275;42.854;23.222;2023-11-19T14:02:58;21.30;;;19.60;;
8476;SDS011;4275;42.854;23.222;2023-11-19T14:05:31;20.70;;;19.00;;
8476;SDS011;4275;42.854;23.222;2023-11-19T14:08:03;21.00;;;19.30;;
8476;SDS011;4275;42.854;23.222;2023-11-19T14:10:38;21.67;;;19.97;;
8476;SDS011;4275;42.854;23.222;2023-11-19T14:13:12;21.40;;;19.70;;
8476;SDS011;4275;42.854;23.222;2023-11-19T14:18:45;20.77;;;19.10;;
8476;SDS011;4275;42.854;23.222;2023-11-19T14:21:17;20.10;;;18.50;;
8476;SDS011;4275;42.854;23.222;2023-11-19T14:23:51;20.30;;;18.70;;
8476;SDS011;4275;42.854;23.222;2023-11-19T14:26:22;20.40;;;18.80;;
8476;SDS011;4275;42.854;23.222;2023-11-19T14:29:01;20.20;;;18.70;;
8476;SDS011;4275;42.854;23.222;2023-11-19T14:31:32;20.00;;;18.50;;
8476;SDS011;4275;42.854;23.222;2023-11-19T14:34:16;19.77;;;18.37;;
8476;SDS011;4275;42.854;23.222;2023-11-19T14:36:48;19.20;;;17.80;;
8476;SDS011;4275;42.854;23.222;2023-11-19T14:39:21;19.47;;;18.07;;
8476;SDS011;4275;42.854;23.222;2023-11-19T14:41:54;18.70;;;17.40;;
8476;SDS011;4275;42.854;23.222;2023-11-19T14:47:56;18.80;;;17.50;;
8476;SDS011;4275;42.854;23.222;2023-11-19T14:50:26;18.53;;;17.23;;
8476;SDS011;4275;42.854;23.222;2023-11-19T14:52:53;18.50;;;17.30;;
8476;SDS011;4275;42.854;23.222;2023-11-19T14:55:20;18.00;;;16.90;;
8476;SDS011;4275;42.854;23.222;2023-11-19T14:57:47;17.70;;;16.53;;
8476;SDS011;4275;42.854;23.222;2023-11-19T15:00:16;17.70;;;16.50;;
8476;SDS011;4275;42.854;23.222;2023-11-19T15:03:02;17.50;;;16.40;;
8476;SDS011;4275;42.854;23.222;2023-11-19T15:05:38;17.40;;;16.30;;
8476;SDS011;4275;42.854;23.222;2023-11-19T15:08:10;17.23;;;16.23;;
8476;SDS011;4275;42.854;23.222;2023-11-19T15:10:42;16.57;;;15.67;;
8476;SDS011;4275;42.854;23.222;2023-11-19T15:13:15;16.60;;;15.70;;
8476;SDS011;4275;42.854;23.222;2023-11-19T15:15:47;16.33;;;15.43;;
8476;SDS011;4275;42.854;23.222;2023-11-19T15:18:22;16.37;;;15.57;;
8476;SDS011;4275;42.854;23.222;2023-11-19T15:20:54;15.60;;;14.80;;
8476;SDS011;4275;42.854;23.222;2023-11-19T15:23:26;15.40;;;14.70;;
8476;SDS011;4275;42.854;23.222;2023-11-19T15:25:58;15.50;;;14.80;;
8476;SDS011;4275;42.854;23.222;2023-11-19T15:28:30;15.40;;;14.70;;
8476;SDS011;4275;42.854;23.222;2023-11-19T15:31:04;15.57;;;14.87;;
8476;SDS011;4275;42.854;23.222;2023-11-19T15:33:39;15.63;;;14.93;;
8476;SDS011;4275;42.854;23.222;2023-11-19T15:36:14;15.37;;;14.67;;
8476;SDS011;4275;42.854;23.222;2023-11-19T15:38:46;15.57;;;14.87;;
8476;SDS011;4275;42.854;23.222;2023-11-19T15:41:19;15.30;;;14.60;;
8476;SDS011;4275;42.854;23.222;2023-11-19T15:43:56;15.63;;;15.03;;
8476;SDS011;4275;42.854;23.222;2023-11-19T15:46:23;15.77;;;15.07;;
8476;SDS011;4275;42.854;23.222;2023-11-19T15:48:52;16.17;;;15.47;;
8476;SDS011;4275;42.854;23.222;2023-11-19T15:51:19;15.97;;;15.27;;
8476;SDS011;4275;42.854;23.222;2023-11-19T15:53:46;15.60;;;14.90;;
8476;SDS011;4275;42.854;23.222;2023-11-19T15:56:12;15.83;;;15.13;;
8476;SDS011;4275;42.854;23.222;2023-11-19T15:58:40;16.10;;;15.40;;
8476;SDS011;4275;42.854;23.222;2023-11-19T16:01:07;15.97;;;15.27;;
8476;SDS011;4275;42.854;23.222;2023-11-19T16:03:34;16.00;;;15.30;;
8476;SDS011;4275;42.854;23.222;2023-11-19T16:06:03;15.60;;;14.90;;
8476;SDS011;4275;42.854;23.222;2023-11-19T16:08:30;15.60;;;14.90;;
8476;SDS011;4275;42.854;23.222;2023-11-19T16:10:58;15.93;;;15.23;;
8476;SDS011;4275;42.854;23.222;2023-11-19T16:13:30;16.97;;;16.17;;
8476;SDS011;4275;42.854;23.222;2023-11-19T16:16:04;16.67;;;15.87;;
8476;SDS011;4275;42.854;23.222;2023-11-19T16:18:36;17.63;;;16.83;;
8476;SDS011;4275;42.854;23.222;2023-11-19T16:21:13;17.47;;;16.67;;
8476;SDS011;4275;42.854;23.222;2023-11-19T16:23:45;17.03;;;16.13;;
8476;SDS011;4275;42.854;23.222;2023-11-19T16:26:17;17.20;;;16.30;;
8476;SDS011;4275;42.854;23.222;2023-11-19T16:28:50;16.70;;;15.90;;
8476;SDS011;4275;42.854;23.222;2023-11-19T16:31:25;17.20;;;16.30;;
8476;SDS011;4275;42.854;23.222;2023-11-19T16:33:59;16.80;;;16.00;;
8476;SDS011;4275;42.854;23.222;2023-11-19T16:36:38;16.40;;;15.60;;
8476;SDS011;4275;42.854;23.222;2023-11-19T16:39:09;16.53;;;15.73;;
8476;SDS011;4275;42.854;23.222;2023-11-19T16:41:44;16.17;;;15.47;;
8476;SDS011;4275;42.854;23.222;2023-11-19T16:44:13;15.60;;;14.90;;
8476;SDS011;4275;42.854;23.222;2023-11-19T16:46:40;15.60;;;14.90;;
8476;SDS011;4275;42.854;23.222;2023-11-19T16:49:07;16.20;;;15.40;;
8476;SDS011;4275;42.854;23.222;2023-11-19T16:51:38;16.40;;;15.60;;
8476;SDS011;4275;42.854;23.222;2023-11-19T16:54:10;16.37;;;15.57;;